Jack C. Davis Observatory, Carson City, Nevada Weather observations

Data are for observation ending at time listed.
 Day   Time    Ave.   Ave.  Ave.  Vector   Max.   Stn.    Total    Solar   Ave.  
  of    of     Air    Rel.  Wind   Wind    Wind   Baro.  Precip.   Rad.    Soil  
Year   Day     Temp.  Hum.  Speed  Dir.    Gust   Pres.                    Temp. 
2026   (PST)    F      %     mph   deg.    mph     mb.     in.     W/m2     F   
------------------------------------------------------------------------------
 123   15:40   53.7    57    4.4   214      9.7   843.2    0.00     204    999.0
 123   15:50   55.1    52    5.9   255     12.4   842.9    0.00     295    999.0
 123   16:00   55.6    48    3.9   274     11.1   842.7    0.00     258    999.0
 123   16:10   55.6    46    5.3    98     11.3   842.5    0.00     291    999.0
 123   16:20   56.9    42    4.0   119      9.1   842.2    0.00     410    999.0
 123   16:30   57.1    43    5.7   105     10.0   842.1    0.00     251    999.0
 123   16:40   56.4    45    4.4    84      8.6   842.1    0.00     198    999.0
 123   16:50   56.0    48    4.2    87      8.7   842.2    0.00     128    999.0
 123   17:00   55.2    52    6.9   114     13.9   842.3    0.00     175    999.0
 123   17:10   55.2    52    8.7   154     14.0   842.3    0.00     120    999.0
 123   17:20   55.5    50    7.0   178     13.6   842.6    0.00      88    999.0
 123   17:30   54.5    54    5.8   136     10.7   842.8    0.00      67    999.0
 123   17:40   53.8    56    5.1   138     10.1   843.1    0.00      49    999.0
 123   17:50   53.5    57    3.8   156      7.4   843.2    0.00      34    999.0
 123   18:00   53.3    59    2.0   213      4.2   843.1    0.00      21    999.0
 123   18:10   52.8    62    1.6   288      2.6   842.9    0.00      13    999.0
 123   18:20   52.3    63    2.8   302      5.6   842.6    0.00      15    999.0
 123   18:30   52.6    62    0.8   318      2.6   842.5    0.00      24    999.0
 123   18:40   52.5    58    1.6   292      4.7   842.3    0.00      15    999.0
 123   18:50   53.2    54    1.4    43      3.5   842.2    0.00       5    999.0
 123   19:00   52.7    54    3.3   294      5.2   842.2    0.00       2    999.0
 123   19:10   52.1    56    1.6   301      3.4   842.1    0.00       1    999.0
 123   19:20   52.0    57    2.1   250      4.3   842.2    0.00       0    999.0
 123   19:30   51.2    61    3.9   200      8.3   842.4    0.00       0    999.0
 123   19:40   51.3    59    2.5   255      5.0   842.5    0.00       0    999.0
 123   19:50   50.7    60    3.0   297      4.6   842.5    0.00       0    999.0
 123   20:00   49.0    63    3.5   283      5.0   842.6    0.00       0    999.0
 123   20:10   48.7    63    3.9   269      5.5   842.8    0.00       0    999.0
 123   20:20   48.7    63    3.6   280      4.8   842.8    0.00       0    999.0
 123   20:30   48.7    63    2.4   297      3.6   842.9    0.00       0    999.0
 123   20:40   49.1    61    2.2   316      3.1   842.9    0.00       0    999.0
 123   20:50   49.7    59    2.6   272      3.6   843.0    0.00       0    999.0
 123   21:00   49.0    61    2.9   255      3.9   843.1    0.00       0    999.0
 123   21:10   48.1    63    4.0   261      5.5   842.9    0.00       0    999.0
 123   21:20   47.6    65    2.7   299      4.3   842.9    0.00       0    999.0
 123   21:30   46.7    66    3.3   284      5.8   842.8    0.00       0    999.0
 123   21:40   45.9    67    4.5   270      5.4   842.8    0.00       0    999.0
 123   21:50   45.5    68    4.1   274      5.9   842.7    0.00       0    999.0
 123   22:00   45.9    68    4.9   268      6.4   842.6    0.00       0    999.0
 123   22:10   46.1    69    3.2   272      4.5   842.5    0.00       0    999.0
 123   22:20   45.9    69    2.5   273      3.7   842.5    0.00       0    999.0
 123   22:30   47.1    68    2.0   258      3.1   842.5    0.00       0    999.0
 123   22:40   47.5    67    1.9   268      2.7   842.6    0.00       0    999.0
 123   22:50   47.7    69    3.0   301      4.0   842.5    0.00       0    999.0
 123   23:00   46.9    72    2.9   285      3.9   842.4    0.00       0    999.0
 123   23:10   47.0    72    1.0     8      3.0   842.3    0.00       0    999.0
 123   23:20   47.7    71    1.9    48      4.2   842.4    0.00       0    999.0
 123   23:30   47.1    73    2.8   262      4.2   842.5    0.00       0    999.0
 123   23:40   47.1    72    2.6   276      5.0   842.5    0.00       0    999.0
 123   23:50   47.0    71    1.5   319      3.9   842.5    0.00       0    999.0
 124    0:00   47.2    68    1.1   284      3.2   842.4    0.00       0    999.0
 124    0:10   46.8    69    1.9   310      3.7   842.3    0.00       0    999.0
 124    0:20   47.2    69    2.3    60      4.6   842.4    0.00       0    999.0
 124    0:30   48.3    66    1.6    48      5.4   842.3    0.00       0    999.0
 124    0:40   47.6    67    2.3   331      4.1   842.2    0.00       0    999.0
 124    0:50   46.9    68    2.9   357      5.0   842.1    0.00       0    999.0
 124    1:00   47.3    66    1.7   352      3.7   842.2    0.00       0    999.0
 124    1:10   46.9    67    3.0   307      4.5   842.2    0.00       0    999.0
 124    1:20   46.8    68    2.9   324      5.8   842.1    0.00       0    999.0
 124    1:30   46.1    71    2.7   307      3.9   842.1    0.00       0    999.0
 124    1:40   46.6    68    2.6   306      4.7   842.0    0.00       0    999.0
 124    1:50   46.5    70    2.0   322      3.8   842.0    0.00       0    999.0
 124    2:00   46.8    68    2.2   273      4.9   841.9    0.00       0    999.0
 124    2:10   46.0    70    3.6   268      5.0   842.0    0.00       0    999.0
 124    2:20   46.6    68    3.5   284      5.0   842.0    0.00       0    999.0
 124    2:30   47.5    65    3.1   305      6.9   841.9    0.00       0    999.0
 124    2:40   47.2    67    0.7   108      2.3   841.9    0.00       0    999.0
 124    2:50   46.6    70    1.5   299      3.7   841.8    0.00       0    999.0
 124    3:00   46.2    72    2.7   283      5.0   841.8    0.00       0    999.0
 124    3:10   46.0    72    2.1   289      4.4   841.8    0.00       0    999.0
 124    3:20   46.1    69    2.9   274      5.8   841.8    0.00       0    999.0
 124    3:30   45.6    70    3.0   278      5.2   841.8    0.00       0    999.0
 124    3:40   45.7    72    1.0   310      2.3   841.9    0.00       0    999.0
 124    3:50   46.0    71    1.7   305      5.0   841.9    0.00       0    999.0
 124    4:00   47.0    67    4.5   326     10.0   841.8    0.00       0    999.0
 124    4:10   47.7    65    4.7   326     10.0   841.6    0.00       0    999.0
 124    4:20   47.6    66    6.7   316     11.4   841.4    0.00       0    999.0
 124    4:30   47.5    65    6.0   318      9.7   841.3    0.00       0    999.0
 124    4:40   47.0    66    2.6   291      7.7   841.3    0.00       0    999.0
 124    4:50   46.7    65    2.1   147      5.9   841.3    0.00       1    999.0
 124    5:00   47.1    63    2.5   204      4.9   841.5    0.00       1    999.0
 124    5:10   47.2    63    2.7   243      5.3   841.6    0.00       2    999.0
 124    5:20   45.6    68    4.0   267      7.2   841.7    0.00       5    999.0
 124    5:30   46.7    66    5.6   284      7.5   841.6    0.00      12    999.0
 124    5:40   47.2    65    5.0   273      7.1   841.5    0.00      32    999.0
 124    5:50   47.9    65    2.4   283      4.4   841.5    0.00      88    999.0
 124    6:00   49.2    62    3.7   284      5.6   841.5    0.00     131    999.0
 124    6:10   50.3    61    2.4     8      4.7   841.7    0.00     145    999.0
 124    6:20   51.5    58    1.9   114      3.4   841.7    0.00     222    999.0
 124    6:30   52.7    56    3.5   142      5.8   841.7    0.00     263    999.0
 124    6:40   51.3    58    2.3    96      4.2   841.8    0.00     203    999.0
 124    6:50   51.0    59    1.8   110      3.9   841.8    0.00     145    999.0
 124    7:00   50.2    60    1.3   108      3.7   841.7    0.00     150    999.0
 124    7:10   50.5    59    1.2    74      3.6   841.8    0.00     146    999.0
 124    7:20   50.2    61    2.1    55      4.7   841.8    0.00     123    999.0
 124    7:30   50.3    60    1.9    14      5.8   841.7    0.00     109    999.0
 124    7:40   49.9    61    3.2    31      6.2   841.7    0.00      66    999.0
 124    7:50   49.3    62    2.7    46      5.1   841.9    0.00      40    999.0
 124    8:00   49.0    63    2.6    97      6.4   842.3    0.00      45    999.0
 124    8:10   48.7    68    4.8   279      8.1   841.9    0.01      92    999.0
 124    8:20   49.2    76    2.6   345      5.8   841.7    0.00     324    999.0
 124    8:30   51.0    71    3.2   105      6.3   841.8    0.00     346    999.0
 124    8:40   51.6    67    2.6   109      4.8   841.9    0.00     318    999.0
 124    8:50   52.4    62    4.1   328     11.8   841.8    0.00     337    999.0
 124    9:00   52.7    60    7.3   322     15.8   841.6    0.00     319    999.0
 124    9:10   52.8    61    4.6   334     11.0   841.7    0.00     349    999.0
 124    9:20   54.8    58    3.8   337      8.8   841.8    0.00     711    999.0
 124    9:30   57.4    54    3.1   340      8.0   841.9    0.00     793    999.0
 124    9:40   59.1    51    2.1   225      5.0   842.0    0.00     656    999.0
 124    9:50   56.6    54    4.5   329      9.0   842.0    0.00     431    999.0
 124   10:00   54.9    55    4.4   330     10.4   842.1    0.00     327    999.0
 124   10:10   54.9    56    3.3   332      7.6   842.1    0.00     314    999.0
 124   10:20   54.6    56    2.8   349      9.0   842.2    0.00     225    999.0
 124   10:30   53.9    58    3.0   347      9.7   842.2    0.00     145    999.0
 124   10:40   53.1    60    4.1   333      9.0   842.2    0.00      89    999.0
 124   10:50   52.6    62    2.5   344      8.2   842.3    0.00      66    999.0
 124   11:00   51.5    70    2.8   340      7.5   842.4    0.01      76    999.0
 124   11:10   50.8    74    1.8    15      4.2   842.4    0.00      94    999.0
 124   11:20   50.8    73    1.6    25      3.8   842.5    0.00      79    999.0
 124   11:30   50.6    74    3.4   132      6.5   842.6    0.00      51    999.0
 124   11:40   49.0    70    3.4   124      7.1   842.9    0.02      41    999.0
 124   11:50   48.5    73    1.0   174      2.9   842.9    0.00      42    999.0
 124   12:00   48.7    77    0.9   200      3.3   842.8    0.02     106    999.0
 124   12:10   48.7    77    1.9   290      3.4   842.8    0.01     122    999.0
 124   12:20   48.5    78    3.4   258      8.0   842.6    0.01     140    999.0
 124   12:30   48.0    78    4.6   243      8.2   842.3    0.01     145    999.0
 124   12:40   48.0    79    2.0   196      5.2   842.2    0.01      92    999.0
 124   12:50   48.4    81    0.6    50      2.3   842.1    0.01      74    999.0
 124   13:00   47.9    80    2.2    34      4.1   842.1    0.00      32    999.0
 124   13:10   47.4    81    2.6   328      9.5   842.1    0.01      22    999.0
 124   13:20   46.8    84   10.7   309     15.2   841.9    0.01      58    999.0
 124   13:30   46.9    83    7.7   309     16.9   841.7    0.01     168    999.0
 124   13:40   48.3    78    5.4   279      9.4   841.6    0.00      95    999.0
 124   13:50   48.0    82    6.1   196      9.3   841.6    0.00      69    999.0
 124   14:00   47.8    86    3.5   178      7.4   841.6    0.00      83    999.0
 124   14:10   48.1    84    1.4   115      3.5   841.6    0.01      76    999.0
 124   14:20   48.7    83    3.3   128      7.2   841.5    0.00     115    999.0
 124   14:30   48.6    82    5.0   153     11.1   841.4    0.00      77    999.0
 124   14:40   48.2    81    3.7   126      6.4   841.4    0.00     132    999.0
 124   14:50   48.8    80    2.6   169      5.0   841.1    0.00     210    999.0
 124   15:00   49.4    80    2.1   290      3.9   840.8    0.00     327    999.0
 124   15:10   50.3    78    4.7    74      7.5   840.7    0.00     343    999.0
 124   15:20   49.9    78    4.0    25      8.7   840.8    0.00     163    999.0
 124   15:30   50.1    77    2.0   334      5.2   840.8    0.00     105    999.0

Return to Yerington, Nevada graphs page.


Western Regional Climate Center,wrcc@dri.edu